This is the latest recevied weather packets stored in our database for station/object KB2M. If no packets are shown the sender has not sent any weather packets the latest 10 day(s).
| Time | Temp. | Humidity | Pressure | Rain* | Wind** | Luminosity | Snow |
|---|---|---|---|---|---|---|---|
| 1777659286 | 26.67° C | 72% | 1012.8 hPa | 0 mm | - | - | - |
| 1777658686 | 26.67° C | 72% | 1012.8 hPa | 0 mm | - | - | - |
| 1777658085 | 27.22° C | 71% | 1012.8 hPa | 0 mm | - | - | - |
| 1777657484 | 27.22° C | 69% | 1012.8 hPa | 0 mm | - | - | - |
| 1777656884 | 27.22° C | 69% | 1013.2 hPa | 0 mm | - | - | - |
| 1777656284 | 27.22° C | 68% | 1013.2 hPa | 0 mm | - | - | - |
| 1777655683 | 26.67° C | 70% | 1013.2 hPa | 0 mm | - | - | - |
| 1777655083 | 26.11° C | 73% | 1013.2 hPa | 0 mm | - | - | - |
| 1777654482 | 26.67° C | 73% | 1013.2 hPa | 0 mm | - | - | - |
| 1777653882 | 26.11° C | 74% | 1013.2 hPa | 0 mm | - | - | - |
| 1777653281 | 26.67° C | 74% | 1013.5 hPa | 0 mm | - | - | - |
| 1777652681 | 27.22° C | 70% | 1013.5 hPa | 0 mm | - | - | - |
| 1777652080 | 27.78° C | 57% | 1013.5 hPa | 0 mm | - | - | - |
| 1777651479 | 27.78° C | 57% | 1013.5 hPa | 0 mm | - | - | - |
| 1777650879 | 27.78° C | 56% | 1013.8 hPa | 0 mm | - | - | - |
| 1777650278 | 26.67° C | 63% | 1013.8 hPa | 0 mm | - | - | - |
| 1777649678 | 26.67° C | 63% | 1013.8 hPa | 0 mm | - | - | - |
| 1777649077 | 26.67° C | 65% | 1013.8 hPa | 0 mm | - | - | - |
| 1777648476 | 26.67° C | 65% | 1013.8 hPa | 0 mm | - | - | - |
| 1777647876 | 26.11° C | 64% | 1013.8 hPa | 0 mm | - | - | - |
| 1777647276 | 25.56° C | 72% | 1013.8 hPa | 0 mm | - | - | - |
| 1777646675 | 25.56° C | 72% | 1013.8 hPa | 0 mm | - | - | - |
| 1777646075 | 25.56° C | 75% | 1013.8 hPa | 0 mm | - | - | - |
| 1777645474 | 25.56° C | 76% | 1013.8 hPa | 0 mm | - | - | - |
| 1777644874 | 25° C | 77% | 1013.8 hPa | 0 mm | - | - | - |
* Rain latest hour (hover to see other rain measurements)
** Current wind speed in m/s (hover to see current wind gust speed)